sensor_id;sensor_type;location;lat;lon;timestamp;pressure;altitude;pressure_sealevel;temperature;humidity
64889;BME280;51386;53.082;8.816;2023-02-17T00:02:15;101586.44;;;14.69;64.48
64889;BME280;51386;53.082;8.816;2023-02-17T00:04:42;101588.09;;;14.70;64.56
64889;BME280;51386;53.082;8.816;2023-02-17T00:07:09;101586.09;;;14.72;64.36
64889;BME280;51386;53.082;8.816;2023-02-17T00:09:36;101580.44;;;14.75;64.52
64889;BME280;51386;53.082;8.816;2023-02-17T00:12:03;101586.56;;;14.76;64.39
64889;BME280;51386;53.082;8.816;2023-02-17T00:14:31;101570.81;;;14.74;64.58
64889;BME280;51386;53.082;8.816;2023-02-17T00:16:58;101578.78;;;14.74;64.56
64889;BME280;51386;53.082;8.816;2023-02-17T00:19:26;101571.47;;;14.76;64.59
64889;BME280;51386;53.082;8.816;2023-02-17T00:21:56;101564.53;;;14.75;64.63
64889;BME280;51386;53.082;8.816;2023-02-17T00:24:25;101571.38;;;14.70;64.84
64889;BME280;51386;53.082;8.816;2023-02-17T00:26:53;101567.88;;;14.69;64.84
64889;BME280;51386;53.082;8.816;2023-02-17T00:29:21;101572.19;;;14.70;64.71
64889;BME280;51386;53.082;8.816;2023-02-17T00:31:48;101566.91;;;14.70;64.60
64889;BME280;51386;53.082;8.816;2023-02-17T00:34:16;101571.47;;;14.76;64.37
64889;BME280;51386;53.082;8.816;2023-02-17T00:36:45;101563.91;;;14.73;64.92
64889;BME280;51386;53.082;8.816;2023-02-17T00:39:14;101568.81;;;14.76;64.80
64889;BME280;51386;53.082;8.816;2023-02-17T00:41:42;101579.25;;;14.78;64.60
64889;BME280;51386;53.082;8.816;2023-02-17T00:44:15;101567.47;;;14.80;64.53
64889;BME280;51386;53.082;8.816;2023-02-17T00:46:43;101557.50;;;14.82;64.51
64889;BME280;51386;53.082;8.816;2023-02-17T00:49:15;101549.19;;;14.85;64.37
64889;BME280;51386;53.082;8.816;2023-02-17T00:51:44;101542.50;;;14.89;64.31
64889;BME280;51386;53.082;8.816;2023-02-17T00:54:12;101532.53;;;14.91;64.27
64889;BME280;51386;53.082;8.816;2023-02-17T00:56:39;101532.53;;;14.91;64.12
64889;BME280;51386;53.082;8.816;2023-02-17T00:59:07;101535.38;;;14.90;65.01
64889;BME280;51386;53.082;8.816;2023-02-17T01:01:34;101529.34;;;14.81;65.46
64889;BME280;51386;53.082;8.816;2023-02-17T01:04:02;101534.63;;;14.81;64.95
64889;BME280;51386;53.082;8.816;2023-02-17T01:06:32;101532.00;;;14.81;64.70
64889;BME280;51386;53.082;8.816;2023-02-17T01:09:02;101531.63;;;14.84;65.02
64889;BME280;51386;53.082;8.816;2023-02-17T01:11:32;101531.44;;;14.71;65.20
64889;BME280;51386;53.082;8.816;2023-02-17T01:14:01;101531.06;;;14.74;65.35
64889;BME280;51386;53.082;8.816;2023-02-17T01:16:35;101536.84;;;14.78;65.09
64889;BME280;51386;53.082;8.816;2023-02-17T01:19:05;101538.94;;;14.82;64.97
64889;BME280;51386;53.082;8.816;2023-02-17T01:21:33;101534.09;;;14.86;64.99
64889;BME280;51386;53.082;8.816;2023-02-17T01:24:04;101519.84;;;14.87;64.98
64889;BME280;51386;53.082;8.816;2023-02-17T01:26:34;101526.81;;;14.88;65.01
64889;BME280;51386;53.082;8.816;2023-02-17T01:29:04;101524.66;;;14.83;65.07
64889;BME280;51386;53.082;8.816;2023-02-17T01:31:32;101518.75;;;14.81;65.52
64889;BME280;51386;53.082;8.816;2023-02-17T01:34:02;101514.91;;;14.84;65.42
64889;BME280;51386;53.082;8.816;2023-02-17T01:36:30;101513.34;;;14.89;65.24
64889;BME280;51386;53.082;8.816;2023-02-17T01:38:57;101511.69;;;14.88;65.35
64889;BME280;51386;53.082;8.816;2023-02-17T01:41:27;101509.44;;;14.85;65.27
64889;BME280;51386;53.082;8.816;2023-02-17T01:44:14;101508.41;;;14.86;65.37
64889;BME280;51386;53.082;8.816;2023-02-17T01:46:43;101520.13;;;14.92;65.25
64889;BME280;51386;53.082;8.816;2023-02-17T01:49:22;101494.03;;;14.96;64.78
64889;BME280;51386;53.082;8.816;2023-02-17T01:51:56;101497.59;;;15.03;64.94
64889;BME280;51386;53.082;8.816;2023-02-17T01:54:33;101488.66;;;15.04;64.87
64889;BME280;51386;53.082;8.816;2023-02-17T01:57:03;101494.22;;;15.09;64.84
64889;BME280;51386;53.082;8.816;2023-02-17T01:59:31;101494.50;;;15.14;64.48
64889;BME280;51386;53.082;8.816;2023-02-17T02:02:02;101496.13;;;15.15;64.28
64889;BME280;51386;53.082;8.816;2023-02-17T02:04:35;101499.19;;;15.12;64.58
64889;BME280;51386;53.082;8.816;2023-02-17T02:07:10;101488.56;;;15.12;64.36
64889;BME280;51386;53.082;8.816;2023-02-17T02:09:46;101485.09;;;15.11;64.41
64889;BME280;51386;53.082;8.816;2023-02-17T02:12:22;101485.09;;;15.11;64.57
64889;BME280;51386;53.082;8.816;2023-02-17T02:14:51;101482.25;;;15.13;64.65
64889;BME280;51386;53.082;8.816;2023-02-17T02:17:33;101471.38;;;15.08;64.82
64889;BME280;51386;53.082;8.816;2023-02-17T02:20:28;101470.94;;;15.04;64.87
64889;BME280;51386;53.082;8.816;2023-02-17T02:26:43;101466.25;;;15.06;64.82
64889;BME280;51386;53.082;8.816;2023-02-17T02:30:00;101468.91;;;15.06;64.99
64889;BME280;51386;53.082;8.816;2023-02-17T02:32:51;101453.19;;;15.05;64.94
64889;BME280;51386;53.082;8.816;2023-02-17T02:35:33;101449.53;;;15.06;64.70
64889;BME280;51386;53.082;8.816;2023-02-17T02:38:11;101446.66;;;15.07;64.92
64889;BME280;51386;53.082;8.816;2023-02-17T02:40:45;101447.13;;;15.11;64.98
64889;BME280;51386;53.082;8.816;2023-02-17T02:43:14;101452.06;;;15.14;64.57
64889;BME280;51386;53.082;8.816;2023-02-17T02:45:41;101452.69;;;15.16;65.12
64889;BME280;51386;53.082;8.816;2023-02-17T02:48:10;101438.06;;;15.20;64.54
64889;BME280;51386;53.082;8.816;2023-02-17T02:50:57;101427.19;;;15.15;64.72
64889;BME280;51386;53.082;8.816;2023-02-17T02:53:52;101420.16;;;15.07;64.98
64889;BME280;51386;53.082;8.816;2023-02-17T02:56:34;101415.31;;;15.11;65.00
64889;BME280;51386;53.082;8.816;2023-02-17T02:59:17;101420.41;;;15.12;64.89
64889;BME280;51386;53.082;8.816;2023-02-17T03:02:05;101415.75;;;15.14;64.90
64889;BME280;51386;53.082;8.816;2023-02-17T03:04:41;101414.38;;;15.18;64.86
64889;BME280;51386;53.082;8.816;2023-02-17T03:07:17;101412.38;;;15.20;64.72
64889;BME280;51386;53.082;8.816;2023-02-17T03:09:52;101404.84;;;15.24;64.63
64889;BME280;51386;53.082;8.816;2023-02-17T03:12:21;101406.84;;;15.22;64.84
64889;BME280;51386;53.082;8.816;2023-02-17T03:14:52;101400.28;;;15.18;64.54
64889;BME280;51386;53.082;8.816;2023-02-17T03:17:20;101402.75;;;15.19;65.13
64889;BME280;51386;53.082;8.816;2023-02-17T03:19:49;101399.94;;;15.21;64.62
64889;BME280;51386;53.082;8.816;2023-02-17T03:22:21;101394.63;;;15.21;64.98
64889;BME280;51386;53.082;8.816;2023-02-17T03:24:49;101382.00;;;15.23;64.87
64889;BME280;51386;53.082;8.816;2023-02-17T03:27:16;101387.28;;;15.23;65.02
64889;BME280;51386;53.082;8.816;2023-02-17T03:29:43;101387.09;;;15.24;64.78
64889;BME280;51386;53.082;8.816;2023-02-17T03:32:11;101383.63;;;15.24;64.71
64889;BME280;51386;53.082;8.816;2023-02-17T03:34:37;101381.63;;;15.26;64.73
64889;BME280;51386;53.082;8.816;2023-02-17T03:37:06;101378.88;;;15.19;64.88
64889;BME280;51386;53.082;8.816;2023-02-17T03:39:33;101380.34;;;15.22;65.07
64889;BME280;51386;53.082;8.816;2023-02-17T03:42:01;101378.31;;;15.24;64.69
64889;BME280;51386;53.082;8.816;2023-02-17T03:44:28;101371.81;;;15.26;64.60
64889;BME280;51386;53.082;8.816;2023-02-17T03:46:54;101366.50;;;15.26;64.50
64889;BME280;51386;53.082;8.816;2023-02-17T03:49:21;101361.66;;;15.30;64.71
64889;BME280;51386;53.082;8.816;2023-02-17T03:51:48;101366.59;;;15.33;64.83
64889;BME280;51386;53.082;8.816;2023-02-17T03:54:16;101370.19;;;15.25;64.66
64889;BME280;51386;53.082;8.816;2023-02-17T03:56:43;101359.56;;;15.25;64.49
64889;BME280;51386;53.082;8.816;2023-02-17T03:59:10;101362.66;;;15.29;64.73
64889;BME280;51386;53.082;8.816;2023-02-17T04:01:37;101351.88;;;15.30;64.63
64889;BME280;51386;53.082;8.816;2023-02-17T04:04:04;101360.00;;;15.29;64.55
64889;BME280;51386;53.082;8.816;2023-02-17T04:06:31;101351.06;;;15.30;64.49
64889;BME280;51386;53.082;8.816;2023-02-17T04:08:58;101350.69;;;15.33;64.51
64889;BME280;51386;53.082;8.816;2023-02-17T04:11:26;101353.97;;;15.35;64.36
64889;BME280;51386;53.082;8.816;2023-02-17T04:13:53;101350.22;;;15.29;64.58
64889;BME280;51386;53.082;8.816;2023-02-17T04:16:20;101347.38;;;15.31;64.46
64889;BME280;51386;53.082;8.816;2023-02-17T04:18:47;101354.13;;;15.33;64.50
64889;BME280;51386;53.082;8.816;2023-02-17T04:21:14;101358.88;;;15.38;64.35
64889;BME280;51386;53.082;8.816;2023-02-17T04:23:41;101352.19;;;15.42;64.20
64889;BME280;51386;53.082;8.816;2023-02-17T04:26:08;101354.22;;;15.40;63.98
64889;BME280;51386;53.082;8.816;2023-02-17T04:28:39;101333.59;;;15.42;64.36
64889;BME280;51386;53.082;8.816;2023-02-17T04:31:08;101331.59;;;15.44;64.09
64889;BME280;51386;53.082;8.816;2023-02-17T04:33:35;101322.44;;;15.46;64.35
64889;BME280;51386;53.082;8.816;2023-02-17T04:36:04;101321.63;;;15.46;64.23
64889;BME280;51386;53.082;8.816;2023-02-17T04:38:32;101309.19;;;15.46;64.10
64889;BME280;51386;53.082;8.816;2023-02-17T04:41:00;101316.53;;;15.44;63.76
64889;BME280;51386;53.082;8.816;2023-02-17T04:43:28;101312.38;;;15.42;63.70
64889;BME280;51386;53.082;8.816;2023-02-17T04:45:57;101305.06;;;15.44;63.89
64889;BME280;51386;53.082;8.816;2023-02-17T04:48:25;101297.75;;;15.46;64.04
64889;BME280;51386;53.082;8.816;2023-02-17T04:50:52;101304.31;;;15.50;63.67
64889;BME280;51386;53.082;8.816;2023-02-17T04:53:19;101309.22;;;15.53;63.55
64889;BME280;51386;53.082;8.816;2023-02-17T04:55:48;101299.66;;;15.52;63.45
64889;BME280;51386;53.082;8.816;2023-02-17T04:58:19;101304.38;;;15.56;63.32
64889;BME280;51386;53.082;8.816;2023-02-17T05:00:48;101302.34;;;15.58;63.08
64889;BME280;51386;53.082;8.816;2023-02-17T05:03:18;101303.59;;;15.63;63.18
64889;BME280;51386;53.082;8.816;2023-02-17T05:05:45;101300.75;;;15.64;63.02
64889;BME280;51386;53.082;8.816;2023-02-17T05:08:12;101291.56;;;15.67;62.92
64889;BME280;51386;53.082;8.816;2023-02-17T05:10:39;101293.00;;;15.69;62.73
64889;BME280;51386;53.082;8.816;2023-02-17T05:13:06;101284.88;;;15.71;62.80
64889;BME280;51386;53.082;8.816;2023-02-17T05:15:33;101289.97;;;15.72;62.61
64889;BME280;51386;53.082;8.816;2023-02-17T05:18:01;101292.38;;;15.67;62.07
64889;BME280;51386;53.082;8.816;2023-02-17T05:20:29;101281.16;;;15.65;62.76
64889;BME280;51386;53.082;8.816;2023-02-17T05:22:57;101293.00;;;15.69;62.82
64889;BME280;51386;53.082;8.816;2023-02-17T05:25:24;101299.97;;;15.70;62.24
64889;BME280;51386;53.082;8.816;2023-02-17T05:27:51;101292.00;;;15.70;62.68
64889;BME280;51386;53.082;8.816;2023-02-17T05:30:18;101288.16;;;15.73;62.33
64889;BME280;51386;53.082;8.816;2023-02-17T05:32:45;101287.31;;;15.72;62.33
64889;BME280;51386;53.082;8.816;2023-02-17T05:35:12;101286.31;;;15.73;62.22
64889;BME280;51386;53.082;8.816;2023-02-17T05:37:41;101279.16;;;15.74;62.15
64889;BME280;51386;53.082;8.816;2023-02-17T05:40:10;101277.16;;;15.76;62.20
64889;BME280;51386;53.082;8.816;2023-02-17T05:42:37;101275.28;;;15.76;62.34
64889;BME280;51386;53.082;8.816;2023-02-17T05:45:05;101271.00;;;15.75;62.33
64889;BME280;51386;53.082;8.816;2023-02-17T05:47:32;101263.69;;;15.77;62.03
64889;BME280;51386;53.082;8.816;2023-02-17T05:50:01;101262.03;;;15.76;61.84
64889;BME280;51386;53.082;8.816;2023-02-17T05:52:28;101239.16;;;15.75;61.94
64889;BME280;51386;53.082;8.816;2023-02-17T05:54:56;101250.41;;;15.77;61.89
64889;BME280;51386;53.082;8.816;2023-02-17T05:57:23;101242.06;;;15.80;61.76
64889;BME280;51386;53.082;8.816;2023-02-17T05:59:50;101236.31;;;15.83;61.67
64889;BME280;51386;53.082;8.816;2023-02-17T06:02:17;101236.31;;;15.83;61.38
64889;BME280;51386;53.082;8.816;2023-02-17T06:04:44;101235.53;;;15.83;61.71
64889;BME280;51386;53.082;8.816;2023-02-17T06:07:11;101245.31;;;15.82;61.68
64889;BME280;51386;53.082;8.816;2023-02-17T06:09:38;101248.97;;;15.81;61.67
64889;BME280;51386;53.082;8.816;2023-02-17T06:12:06;101244.09;;;15.78;61.32
64889;BME280;51386;53.082;8.816;2023-02-17T06:14:33;101258.38;;;15.77;61.25
64889;BME280;51386;53.082;8.816;2023-02-17T06:17:00;101250.03;;;15.80;61.35
64889;BME280;51386;53.082;8.816;2023-02-17T06:19:29;101240.41;;;15.79;61.10
64889;BME280;51386;53.082;8.816;2023-02-17T06:21:56;101246.75;;;15.78;61.27
64889;BME280;51386;53.082;8.816;2023-02-17T06:24:24;101234.25;;;15.72;61.56
64889;BME280;51386;53.082;8.816;2023-02-17T06:26:51;101227.72;;;15.75;61.43
64889;BME280;51386;53.082;8.816;2023-02-17T06:29:19;101209.97;;;15.75;60.79
64889;BME280;51386;53.082;8.816;2023-02-17T06:31:46;101214.25;;;15.76;61.19
64889;BME280;51386;53.082;8.816;2023-02-17T06:34:13;101206.50;;;15.81;60.85
64889;BME280;51386;53.082;8.816;2023-02-17T06:36:40;101202.84;;;15.82;60.71
64889;BME280;51386;53.082;8.816;2023-02-17T06:39:07;101199.16;;;15.83;60.52
64889;BME280;51386;53.082;8.816;2023-02-17T06:41:34;101195.91;;;15.81;60.65
64889;BME280;51386;53.082;8.816;2023-02-17T06:44:01;101198.31;;;15.76;60.42
64889;BME280;51386;53.082;8.816;2023-02-17T06:46:29;101202.25;;;15.80;60.64
64889;BME280;51386;53.082;8.816;2023-02-17T06:48:56;101193.06;;;15.83;60.10
64889;BME280;51386;53.082;8.816;2023-02-17T06:51:26;101190.41;;;15.83;59.98
64889;BME280;51386;53.082;8.816;2023-02-17T06:53:53;101201.81;;;15.83;59.91
64889;BME280;51386;53.082;8.816;2023-02-17T06:56:20;101188.34;;;15.78;59.87
64889;BME280;51386;53.082;8.816;2023-02-17T06:58:47;101195.28;;;15.79;60.41
64889;BME280;51386;53.082;8.816;2023-02-17T07:01:16;101186.69;;;15.77;60.20
64889;BME280;51386;53.082;8.816;2023-02-17T07:03:45;101188.53;;;15.77;60.25
64889;BME280;51386;53.082;8.816;2023-02-17T07:06:12;101194.66;;;15.77;60.18
64889;BME280;51386;53.082;8.816;2023-02-17T07:08:39;101199.97;;;15.77;60.48
64889;BME280;51386;53.082;8.816;2023-02-17T07:11:08;101209.75;;;15.77;60.29
64889;BME280;51386;53.082;8.816;2023-02-17T07:13:36;101204.66;;;15.75;60.39
64889;BME280;51386;53.082;8.816;2023-02-17T07:16:04;101212.25;;;15.78;60.23
64889;BME280;51386;53.082;8.816;2023-02-17T07:18:32;101211.81;;;15.81;60.32
64889;BME280;51386;53.082;8.816;2023-02-17T07:21:00;101210.00;;;15.82;60.11
64889;BME280;51386;53.082;8.816;2023-02-17T07:23:27;101193.44;;;15.80;60.13
64889;BME280;51386;53.082;8.816;2023-02-17T07:25:54;101206.50;;;15.81;60.41
64889;BME280;51386;53.082;8.816;2023-02-17T07:28:21;101205.06;;;15.79;60.34
64889;BME280;51386;53.082;8.816;2023-02-17T07:30:48;101214.91;;;15.78;60.06
64889;BME280;51386;53.082;8.816;2023-02-17T07:33:15;101191.00;;;15.78;60.45
64889;BME280;51386;53.082;8.816;2023-02-17T07:35:43;101183.41;;;15.69;60.50
64889;BME280;51386;53.082;8.816;2023-02-17T07:38:11;101199.09;;;15.64;60.76
64889;BME280;51386;53.082;8.816;2023-02-17T07:40:39;101200.91;;;15.63;61.29
64889;BME280;51386;53.082;8.816;2023-02-17T07:43:06;101198.50;;;15.68;60.91
64889;BME280;51386;53.082;8.816;2023-02-17T07:45:33;101197.06;;;15.66;61.08
64889;BME280;51386;53.082;8.816;2023-02-17T07:48:00;101191.94;;;15.64;61.30
64889;BME280;51386;53.082;8.816;2023-02-17T07:50:27;101183.16;;;15.64;61.04
64889;BME280;51386;53.082;8.816;2023-02-17T07:52:54;101182.34;;;15.63;61.23
64889;BME280;51386;53.082;8.816;2023-02-17T07:55:22;101182.34;;;15.63;61.27
64889;BME280;51386;53.082;8.816;2023-02-17T07:57:50;101170.28;;;15.61;61.41
64889;BME280;51386;53.082;8.816;2023-02-17T08:00:17;101165.34;;;15.57;61.49
64889;BME280;51386;53.082;8.816;2023-02-17T08:02:44;101166.19;;;15.58;61.59
64889;BME280;51386;53.082;8.816;2023-02-17T08:05:11;101154.56;;;15.59;61.48
64889;BME280;51386;53.082;8.816;2023-02-17T08:07:38;101158.44;;;15.56;62.11
64889;BME280;51386;53.082;8.816;2023-02-17T08:10:07;101150.03;;;15.53;61.72
64889;BME280;51386;53.082;8.816;2023-02-17T08:12:54;101155.34;;;15.53;61.79
64889;BME280;51386;53.082;8.816;2023-02-17T08:15:39;101150.41;;;15.50;62.04
64889;BME280;51386;53.082;8.816;2023-02-17T08:18:07;101153.31;;;15.55;61.99
64889;BME280;51386;53.082;8.816;2023-02-17T08:20:34;101148.00;;;15.55;62.16
64889;BME280;51386;53.082;8.816;2023-02-17T08:23:01;101142.28;;;15.51;62.42
64889;BME280;51386;53.082;8.816;2023-02-17T08:25:31;101139.81;;;15.50;62.41
64889;BME280;51386;53.082;8.816;2023-02-17T08:28:00;101140.22;;;15.47;62.69
64889;BME280;51386;53.082;8.816;2023-02-17T08:30:28;101132.06;;;15.48;63.01
64889;BME280;51386;53.082;8.816;2023-02-17T08:32:55;101128.19;;;15.51;63.11
64889;BME280;51386;53.082;8.816;2023-02-17T08:35:24;101134.72;;;15.55;62.93
64889;BME280;51386;53.082;8.816;2023-02-17T08:37:51;101141.69;;;15.56;62.90
64889;BME280;51386;53.082;8.816;2023-02-17T08:40:19;101115.78;;;15.58;62.74
64889;BME280;51386;53.082;8.816;2023-02-17T08:42:46;101119.41;;;15.50;63.13
64889;BME280;51386;53.082;8.816;2023-02-17T08:45:16;101107.97;;;15.50;63.51
64889;BME280;51386;53.082;8.816;2023-02-17T08:47:43;101118.56;;;15.50;63.38
64889;BME280;51386;53.082;8.816;2023-02-17T08:50:13;101111.28;;;15.52;63.38
64889;BME280;51386;53.082;8.816;2023-02-17T08:52:42;101130.03;;;15.57;63.14
64889;BME280;51386;53.082;8.816;2023-02-17T08:55:09;101110.47;;;15.58;63.28
64889;BME280;51386;53.082;8.816;2023-02-17T08:57:36;101119.44;;;15.57;63.38
64889;BME280;51386;53.082;8.816;2023-02-17T09:00:09;101108.03;;;15.56;63.46
64889;BME280;51386;53.082;8.816;2023-02-17T09:02:38;101108.81;;;15.57;63.15
64889;BME280;51386;53.082;8.816;2023-02-17T09:05:09;101107.59;;;15.59;63.14
64889;BME280;51386;53.082;8.816;2023-02-17T09:07:36;101100.69;;;15.65;63.38
64889;BME280;51386;53.082;8.816;2023-02-17T09:10:04;101114.19;;;15.70;63.64
64889;BME280;51386;53.082;8.816;2023-02-17T09:12:32;101118.88;;;15.68;63.68
64889;BME280;51386;53.082;8.816;2023-02-17T09:15:00;101115.00;;;15.64;63.36
64889;BME280;51386;53.082;8.816;2023-02-17T09:17:27;101112.13;;;15.59;64.02
64889;BME280;51386;53.082;8.816;2023-02-17T09:19:55;101114.56;;;15.61;63.88
64889;BME280;51386;53.082;8.816;2023-02-17T09:22:22;101090.66;;;15.54;64.06
64889;BME280;51386;53.082;8.816;2023-02-17T09:24:58;101096.59;;;15.56;64.15
64889;BME280;51386;53.082;8.816;2023-02-17T09:27:28;101088.03;;;15.61;63.81
64889;BME280;51386;53.082;8.816;2023-02-17T09:29:58;101086.81;;;15.63;63.81
64889;BME280;51386;53.082;8.816;2023-02-17T09:32:25;101106.00;;;15.65;63.70
64889;BME280;51386;53.082;8.816;2023-02-17T09:34:52;101102.56;;;15.71;63.71
64889;BME280;51386;53.082;8.816;2023-02-17T09:37:21;101102.75;;;15.76;63.94
64889;BME280;51386;53.082;8.816;2023-02-17T09:39:49;101097.69;;;15.81;63.58
64889;BME280;51386;53.082;8.816;2023-02-17T09:42:19;101103.59;;;15.83;63.31
64889;BME280;51386;53.082;8.816;2023-02-17T09:44:51;101096.28;;;15.85;63.33
64889;BME280;51386;53.082;8.816;2023-02-17T09:47:25;101107.50;;;15.87;63.21
64889;BME280;51386;53.082;8.816;2023-02-17T09:49:58;101097.28;;;15.91;63.37
64889;BME280;51386;53.082;8.816;2023-02-17T09:52:35;101099.34;;;15.95;63.15
64889;BME280;51386;53.082;8.816;2023-02-17T09:55:07;101083.03;;;15.98;63.22
64889;BME280;51386;53.082;8.816;2023-02-17T09:57:45;101073.00;;;16.00;63.14
64889;BME280;51386;53.082;8.816;2023-02-17T10:02:57;101050.56;;;16.03;62.92
64889;BME280;51386;53.082;8.816;2023-02-17T10:05:34;101058.75;;;16.08;62.68
64889;BME280;51386;53.082;8.816;2023-02-17T10:08:10;101052.59;;;16.07;62.72
64889;BME280;51386;53.082;8.816;2023-02-17T10:10:45;101063.25;;;16.14;62.48
64889;BME280;51386;53.082;8.816;2023-02-17T10:13:17;101064.47;;;16.18;62.31
64889;BME280;51386;53.082;8.816;2023-02-17T10:15:50;101062.84;;;16.23;62.23
64889;BME280;51386;53.082;8.816;2023-02-17T10:18:25;101062.44;;;16.26;62.06
64889;BME280;51386;53.082;8.816;2023-02-17T10:21:01;101069.38;;;16.27;61.84
64889;BME280;51386;53.082;8.816;2023-02-17T10:23:33;101071.03;;;16.35;61.51
64889;BME280;51386;53.082;8.816;2023-02-17T10:26:21;101086.16;;;16.41;61.36
64889;BME280;51386;53.082;8.816;2023-02-17T10:28:51;101076.34;;;16.48;60.84
64889;BME280;51386;53.082;8.816;2023-02-17T10:31:36;101079.59;;;16.44;61.01
64889;BME280;51386;53.082;8.816;2023-02-17T10:34:18;101094.72;;;16.43;60.89
64889;BME280;51386;53.082;8.816;2023-02-17T10:36:56;101088.19;;;16.46;60.67
64889;BME280;51386;53.082;8.816;2023-02-17T10:39:43;101092.72;;;16.52;60.27
64889;BME280;51386;53.082;8.816;2023-02-17T10:42:19;101093.94;;;16.56;60.15
64889;BME280;51386;53.082;8.816;2023-02-17T10:44:49;101090.47;;;16.62;60.02
64889;BME280;51386;53.082;8.816;2023-02-17T10:47:18;101081.69;;;16.68;59.99
64889;BME280;51386;53.082;8.816;2023-02-17T10:49:49;101093.34;;;16.73;59.81
64889;BME280;51386;53.082;8.816;2023-02-17T10:52:20;101098.44;;;16.75;59.62
64889;BME280;51386;53.082;8.816;2023-02-17T10:54:53;101096.78;;;16.74;59.39
64889;BME280;51386;53.082;8.816;2023-02-17T10:57:23;101091.28;;;16.75;59.56
64889;BME280;51386;53.082;8.816;2023-02-17T10:59:53;101083.09;;;16.77;59.43
64889;BME280;51386;53.082;8.816;2023-02-17T11:02:24;101096.00;;;16.80;59.24
64889;BME280;51386;53.082;8.816;2023-02-17T11:04:53;101091.47;;;16.74;59.22
64889;BME280;51386;53.082;8.816;2023-02-17T11:07:31;101094.75;;;16.76;59.34
64889;BME280;51386;53.082;8.816;2023-02-17T11:10:03;101090.47;;;16.75;59.07
64889;BME280;51386;53.082;8.816;2023-02-17T11:12:38;101091.91;;;16.77;59.12
64889;BME280;51386;53.082;8.816;2023-02-17T11:15:15;101083.72;;;16.79;59.08
64889;BME280;51386;53.082;8.816;2023-02-17T11:17:44;101086.97;;;16.81;59.40
64889;BME280;51386;53.082;8.816;2023-02-17T11:20:34;101080.88;;;16.80;59.03
64889;BME280;51386;53.082;8.816;2023-02-17T11:23:19;101095.56;;;16.83;59.38
64889;BME280;51386;53.082;8.816;2023-02-17T11:26:00;101103.34;;;16.78;59.24
64889;BME280;51386;53.082;8.816;2023-02-17T11:28:28;101081.03;;;16.79;59.33
64889;BME280;51386;53.082;8.816;2023-02-17T11:30:58;101081.66;;;16.81;59.30
64889;BME280;51386;53.082;8.816;2023-02-17T11:33:35;101078.78;;;16.76;59.50
64889;BME280;51386;53.082;8.816;2023-02-17T11:36:05;101085.75;;;16.77;59.53
64889;BME280;51386;53.082;8.816;2023-02-17T11:38:42;101082.09;;;16.78;59.49
64889;BME280;51386;53.082;8.816;2023-02-17T11:41:12;101071.47;;;16.78;59.53
64889;BME280;51386;53.082;8.816;2023-02-17T11:43:51;101091.91;;;16.77;59.48
64889;BME280;51386;53.082;8.816;2023-02-17T11:46:30;101077.19;;;16.75;59.79
64889;BME280;51386;53.082;8.816;2023-02-17T11:49:31;101065.50;;;16.76;59.64
64889;BME280;51386;53.082;8.816;2023-02-17T11:52:23;101081.25;;;16.77;59.63
64889;BME280;51386;53.082;8.816;2023-02-17T11:55:12;101078.19;;;16.74;59.75
64889;BME280;51386;53.082;8.816;2023-02-17T11:57:52;101087.41;;;16.78;59.36
64889;BME280;51386;53.082;8.816;2023-02-17T12:00:34;101080.44;;;16.77;59.40
64889;BME280;51386;53.082;8.816;2023-02-17T12:03:42;101078.38;;;16.79;59.70
64889;BME280;51386;53.082;8.816;2023-02-17T12:06:20;101067.34;;;16.82;59.96
64889;BME280;51386;53.082;8.816;2023-02-17T12:09:02;101085.34;;;16.80;59.95
64889;BME280;51386;53.082;8.816;2023-02-17T12:11:41;101080.44;;;16.77;60.31
64889;BME280;51386;53.082;8.816;2023-02-17T12:14:47;101082.50;;;16.55;61.40
64889;BME280;51386;53.082;8.816;2023-02-17T12:17:33;101069.44;;;16.54;61.53
64889;BME280;51386;53.082;8.816;2023-02-17T12:20:19;101074.28;;;16.50;61.97
64889;BME280;51386;53.082;8.816;2023-02-17T12:23:07;101067.34;;;16.43;62.15
64889;BME280;51386;53.082;8.816;2023-02-17T12:25:44;101079.22;;;16.40;62.38
64889;BME280;51386;53.082;8.816;2023-02-17T12:28:47;101084.94;;;16.31;63.10
64889;BME280;51386;53.082;8.816;2023-02-17T12:31:49;101071.84;;;16.29;63.19
64889;BME280;51386;53.082;8.816;2023-02-17T12:34:27;101061.41;;;16.27;63.21
64889;BME280;51386;53.082;8.816;2023-02-17T12:36:57;101074.31;;;16.31;63.19
64889;BME280;51386;53.082;8.816;2023-02-17T12:39:32;101093.50;;;16.33;63.13
64889;BME280;51386;53.082;8.816;2023-02-17T12:42:06;101087.97;;;16.34;63.12
64889;BME280;51386;53.082;8.816;2023-02-17T12:44:41;101083.88;;;16.38;63.12
64889;BME280;51386;53.082;8.816;2023-02-17T12:47:15;101089.03;;;16.40;63.56
64889;BME280;51386;53.082;8.816;2023-02-17T12:49:51;101098.41;;;16.42;63.35
64889;BME280;51386;53.082;8.816;2023-02-17T12:52:26;101098.00;;;16.39;63.28
64889;BME280;51386;53.082;8.816;2023-02-17T12:54:59;101090.63;;;16.34;63.51
64889;BME280;51386;53.082;8.816;2023-02-17T12:57:36;101084.50;;;16.34;63.76
64889;BME280;51386;53.082;8.816;2023-02-17T13:00:15;101096.34;;;16.31;63.82
64889;BME280;51386;53.082;8.816;2023-02-17T13:02:46;101098.22;;;16.31;64.03
64889;BME280;51386;53.082;8.816;2023-02-17T13:05:21;101099.63;;;16.26;63.87
64889;BME280;51386;53.082;8.816;2023-02-17T13:07:59;101106.97;;;16.24;64.05
64889;BME280;51386;53.082;8.816;2023-02-17T13:10:34;101115.97;;;16.23;64.33
64889;BME280;51386;53.082;8.816;2023-02-17T13:13:06;101103.31;;;16.25;64.25
64889;BME280;51386;53.082;8.816;2023-02-17T13:15:42;101095.94;;;16.27;63.84
64889;BME280;51386;53.082;8.816;2023-02-17T13:18:26;101096.78;;;16.35;63.58
64889;BME280;51386;53.082;8.816;2023-02-17T13:20:58;101093.09;;;16.36;63.35